KAMW/AMW METAR and TAF weather

Enter ICAO airport designator
Station Type Date Time Source
KAMW METAR 2022/01/26 19:53 UTC NOAA

KAMW 261953Z AUTO 20013KT 10SM CLR M06/M13 A3018 RMK AO2 SLP241 T10561128


Station Type Date Time Source
KAMW Decoded METAR 2022/01/26 19:53 UTC NOAA

AMES MUNICIPAL AIRPORT, IA, United States (KAMW) 41-59N 93-37W 279M
Jan 26, 2022 - 02:53 PM EST / 2022.01.26 1953 UTC
Wind: from the SSW (200 degrees) at 15 MPH (13 KT):0
Visibility: 10 mile(s):0
Sky conditions: clear
Temperature: 21.9 F (-5.6 C)
Windchill: 8 F (-13 C):1
Dew Point: 9.0 F (-12.8 C)
Relative Humidity: 56%
Pressure (altimeter): 30.18 in. Hg (1022 hPa)
ob: KAMW 261953Z AUTO 20013KT 10SM CLR M06/M13 A3018 RMK AO2 SLP241 T10561128
cycle: 20

Station Type Date Time Source
KAMW TAF UTC NOAA

Error!

Example: see airport list